createdAt,value
2017-11-19T00:01:19.053Z,99.60
2017-11-19T00:03:48.296Z,99.20
2017-11-19T00:06:17.330Z,99.10
2017-11-19T00:08:46.685Z,99.10
2017-11-19T00:11:16.434Z,99.10
2017-11-19T00:13:46.567Z,99.20
2017-11-19T00:16:15.846Z,99.20
2017-11-19T00:18:46.053Z,99.30
2017-11-19T00:21:15.630Z,99.40
2017-11-19T00:23:45.054Z,99.40
2017-11-19T00:26:15.617Z,99.50
2017-11-19T00:28:45.041Z,99.50
2017-11-19T00:31:13.975Z,99.50
2017-11-19T00:33:42.897Z,99.40
2017-11-19T00:36:11.811Z,99.50
2017-11-19T00:38:41.240Z,99.50
2017-11-19T00:41:11.285Z,99.50
2017-11-19T00:43:40.778Z,99.50
2017-11-19T00:46:10.277Z,99.50
2017-11-19T00:48:40.515Z,99.50
2017-11-19T00:51:09.936Z,99.40
2017-11-19T00:53:39.370Z,99.30
2017-11-19T00:56:09.156Z,99.50
2017-11-19T00:58:39.332Z,99.80
2017-11-19T01:01:08.780Z,99.80
2017-11-19T01:03:38.569Z,99.70
2017-11-19T01:06:08.029Z,99.40
2017-11-19T01:08:37.453Z,99.10
2017-11-19T01:11:07.069Z,99.20
2017-11-19T01:13:36.486Z,99.10
2017-11-19T01:16:05.980Z,98.90
2017-11-19T01:18:36.047Z,98.70
2017-11-19T01:21:06.444Z,98.80
2017-11-19T01:23:35.665Z,98.80
2017-11-19T01:26:05.376Z,99.00
2017-11-19T01:28:35.030Z,99.60
2017-11-19T01:31:04.680Z,99.40
2017-11-19T01:33:34.397Z,99.50
2017-11-19T01:36:03.825Z,99.50
2017-11-19T01:38:33.324Z,99.50
2017-11-19T01:41:03.361Z,99.60
2017-11-19T01:43:33.554Z,99.20
2017-11-19T01:46:02.847Z,99.20
2017-11-19T01:48:33.185Z,98.80
2017-11-19T01:51:02.640Z,98.60
2017-11-19T01:53:32.081Z,98.50
2017-11-19T01:56:01.878Z,98.60
2017-11-19T01:58:31.294Z,98.60
2017-11-19T02:01:01.908Z,98.60
2017-11-19T02:03:31.505Z,98.60
2017-11-19T02:06:01.130Z,98.40
2017-11-19T02:08:30.690Z,98.30
2017-11-19T02:11:00.119Z,98.10
2017-11-19T02:13:29.924Z,98.00
2017-11-19T02:15:59.389Z,97.80
2017-11-19T02:18:29.029Z,97.70
2017-11-19T02:20:58.627Z,97.60
2017-11-19T02:23:29.098Z,97.50
2017-11-19T02:25:58.961Z,97.40
2017-11-19T02:28:28.555Z,97.50
2017-11-19T02:30:58.037Z,97.40
2017-11-19T02:33:27.577Z,97.40
2017-11-19T02:35:56.979Z,97.30
2017-11-19T02:38:26.977Z,97.30
2017-11-19T02:40:56.280Z,97.50
2017-11-19T02:43:25.727Z,97.70
2017-11-19T02:45:55.605Z,98.00
2017-11-19T02:48:25.119Z,98.00
2017-11-19T02:50:54.579Z,98.00
2017-11-19T02:53:24.537Z,98.00
2017-11-19T02:55:54.277Z,97.90
2017-11-19T02:58:23.736Z,98.10
2017-11-19T03:00:53.604Z,98.00
2017-11-19T03:03:23.181Z,98.00
2017-11-19T03:05:52.688Z,98.10
2017-11-19T03:08:22.267Z,98.00
2017-11-19T03:10:51.508Z,98.10
2017-11-19T03:13:20.402Z,98.00
2017-11-19T03:15:50.137Z,98.00
2017-11-19T03:18:20.653Z,97.90
2017-11-19T03:20:50.318Z,97.80
2017-11-19T03:23:20.293Z,97.80
2017-11-19T03:25:49.800Z,97.80
2017-11-19T03:28:19.944Z,97.80
2017-11-19T03:30:49.359Z,97.90
2017-11-19T03:33:18.614Z,97.90
2017-11-19T03:35:48.034Z,97.90
2017-11-19T03:38:17.448Z,98.10
2017-11-19T03:40:49.121Z,98.20
2017-11-19T03:43:19.379Z,97.90
2017-11-19T03:45:51.084Z,97.90
2017-11-19T03:48:20.525Z,97.70
2017-11-19T03:50:49.997Z,97.60
2017-11-19T03:53:20.559Z,97.30
2017-11-19T03:55:50.733Z,97.20
2017-11-19T03:58:20.537Z,97.20
2017-11-19T04:00:50.618Z,97.30
2017-11-19T04:03:20.755Z,97.30
2017-11-19T04:05:50.304Z,97.80
2017-11-19T04:08:19.918Z,97.50
2017-11-19T04:10:49.665Z,97.60
2017-11-19T04:13:19.108Z,97.70
2017-11-19T04:15:48.537Z,97.80
2017-11-19T04:18:18.328Z,97.90
2017-11-19T04:20:47.753Z,98.20
2017-11-19T04:23:17.170Z,98.40
2017-11-19T04:25:47.254Z,98.50
2017-11-19T04:28:16.437Z,98.90
2017-11-19T04:30:46.332Z,97.70
2017-11-19T04:33:16.225Z,97.60
2017-11-19T04:35:45.698Z,97.50
2017-11-19T04:38:15.146Z,97.30
2017-11-19T04:40:45.197Z,97.00
2017-11-19T04:43:15.053Z,96.80
2017-11-19T04:45:44.681Z,96.80
2017-11-19T04:48:15.436Z,96.80
2017-11-19T04:50:45.641Z,96.80
2017-11-19T04:53:15.093Z,96.80
2017-11-19T04:55:44.527Z,96.70
2017-11-19T04:58:13.960Z,96.80
2017-11-19T05:00:43.845Z,97.40
2017-11-19T05:03:13.253Z,97.10
2017-11-19T05:05:42.670Z,97.20
2017-11-19T05:08:13.164Z,97.10
2017-11-19T05:10:42.584Z,97.10
2017-11-19T05:13:11.997Z,96.70
2017-11-19T05:15:42.033Z,96.50
2017-11-19T05:18:11.444Z,96.30
2017-11-19T05:20:41.650Z,96.50
2017-11-19T05:23:11.646Z,96.50
2017-11-19T05:25:40.793Z,96.70
2017-11-19T05:28:10.225Z,96.90
2017-11-19T05:30:40.025Z,97.00
2017-11-19T05:33:09.154Z,97.00
2017-11-19T05:35:38.305Z,97.10
2017-11-19T05:38:07.789Z,97.20
2017-11-19T05:40:38.149Z,97.10
2017-11-19T05:43:08.078Z,97.10
2017-11-19T05:45:37.549Z,97.40
2017-11-19T05:48:07.048Z,97.60
2017-11-19T05:50:36.813Z,97.90
2017-11-19T05:53:06.233Z,97.90
2017-11-19T05:55:35.693Z,97.80
2017-11-19T05:58:05.405Z,97.40
2017-11-19T06:00:34.863Z,97.10
2017-11-19T06:03:06.014Z,96.80
2017-11-19T06:05:35.473Z,96.90
2017-11-19T06:08:05.667Z,97.20
2017-11-19T06:10:35.692Z,96.90
2017-11-19T06:13:05.874Z,97.50
2017-11-19T06:15:35.330Z,97.50
2017-11-19T06:18:04.503Z,97.70
2017-11-19T06:20:33.946Z,97.70
2017-11-19T06:23:03.404Z,97.70
2017-11-19T06:25:32.854Z,97.70
2017-11-19T06:28:02.380Z,97.90
2017-11-19T06:30:32.457Z,97.90
2017-11-19T06:33:01.903Z,98.10
2017-11-19T06:35:31.431Z,98.50
2017-11-19T06:38:01.299Z,98.90
2017-11-19T06:40:30.063Z,98.90
2017-11-19T06:42:59.508Z,98.80
2017-11-19T06:45:29.312Z,98.60
2017-11-19T06:47:59.542Z,98.40
2017-11-19T06:50:28.658Z,98.40
2017-11-19T06:52:59.131Z,98.40
2017-11-19T06:55:28.806Z,98.30
2017-11-19T06:57:58.338Z,98.40
2017-11-19T07:00:28.381Z,98.40
2017-11-19T07:02:57.788Z,98.50
2017-11-19T07:05:27.229Z,98.60
2017-11-19T07:07:57.269Z,98.60
2017-11-19T07:10:35.016Z,98.60
2017-11-19T07:13:09.607Z,98.60
2017-11-19T07:15:39.197Z,98.60
2017-11-19T07:18:08.619Z,98.70
2017-11-19T07:20:38.056Z,98.70
2017-11-19T07:23:07.524Z,98.80
2017-11-19T07:25:38.369Z,98.90
2017-11-19T07:28:07.521Z,98.90
2017-11-19T07:30:37.040Z,99.00
2017-11-19T07:33:07.372Z,98.50
2017-11-19T07:35:36.801Z,98.50
2017-11-19T07:38:06.273Z,98.50
2017-11-19T07:40:36.008Z,98.50
2017-11-19T07:43:06.862Z,98.50
2017-11-19T07:45:36.714Z,98.30
2017-11-19T07:48:06.478Z,98.30
2017-11-19T07:50:35.091Z,98.20
2017-11-19T07:53:04.645Z,98.20
2017-11-19T07:55:33.798Z,98.30
2017-11-19T07:58:03.216Z,98.30
2017-11-19T08:00:33.042Z,98.30
2017-11-19T08:03:02.836Z,98.30
2017-11-19T08:05:31.740Z,98.20
2017-11-19T08:08:01.285Z,98.30
2017-11-19T08:10:30.387Z,98.30
2017-11-19T08:12:59.639Z,98.30
2017-11-19T08:15:29.080Z,98.20
2017-11-19T08:17:58.509Z,98.30
2017-11-19T08:20:27.256Z,98.40
2017-11-19T08:22:56.730Z,98.70
2017-11-19T08:25:25.810Z,98.40
2017-11-19T08:27:55.310Z,97.20
2017-11-19T08:30:25.881Z,96.80
2017-11-19T08:32:56.217Z,96.50
2017-11-19T08:35:26.692Z,96.40
2017-11-19T08:37:56.340Z,96.60
2017-11-19T08:40:25.801Z,96.90
2017-11-19T08:42:55.616Z,97.10
2017-11-19T08:45:25.025Z,97.40
2017-11-19T08:47:54.445Z,97.80
2017-11-19T08:50:23.921Z,97.90
2017-11-19T08:52:53.354Z,97.60
2017-11-19T08:55:22.759Z,96.70
2017-11-19T08:57:52.465Z,96.70
2017-11-19T09:00:22.012Z,96.60
2017-11-19T09:02:51.541Z,96.60
2017-11-19T09:05:21.442Z,96.10
2017-11-19T09:07:52.293Z,95.80
2017-11-19T09:10:21.748Z,95.20
2017-11-19T09:12:51.940Z,94.90
2017-11-19T09:15:22.402Z,95.00
2017-11-19T09:17:51.839Z,94.20
2017-11-19T09:20:21.475Z,93.90
2017-11-19T09:22:50.912Z,94.20
2017-11-19T09:25:20.327Z,94.00
2017-11-19T09:27:49.738Z,93.60
2017-11-19T09:30:19.528Z,93.70
2017-11-19T09:32:49.954Z,93.70
2017-11-19T09:35:19.471Z,93.70
2017-11-19T09:37:48.881Z,94.30
2017-11-19T09:40:19.609Z,93.80
2017-11-19T09:42:49.055Z,93.30
2017-11-19T09:45:18.498Z,93.70
2017-11-19T09:47:48.300Z,93.30
2017-11-19T09:50:17.736Z,93.20
2017-11-19T09:52:47.164Z,93.70
2017-11-19T09:55:16.672Z,93.20
2017-11-19T09:57:47.040Z,93.10
2017-11-19T10:00:16.805Z,93.40
2017-11-19T10:02:46.211Z,92.70
2017-11-19T10:05:22.495Z,92.60
2017-11-19T10:07:55.496Z,91.70
2017-11-19T10:10:25.554Z,91.60
2017-11-19T10:12:54.981Z,91.70
2017-11-19T10:15:24.424Z,91.40
2017-11-19T10:17:54.427Z,91.20
2017-11-19T10:20:23.895Z,90.80
2017-11-19T10:22:53.306Z,90.70
2017-11-19T10:25:23.018Z,91.20
2017-11-19T10:27:52.440Z,90.50
2017-11-19T10:30:22.630Z,90.40
2017-11-19T10:32:52.111Z,90.40
2017-11-19T10:35:21.716Z,89.50
2017-11-19T10:37:51.146Z,89.40
2017-11-19T10:40:20.928Z,87.50
2017-11-19T10:42:51.065Z,87.10
2017-11-19T10:45:21.723Z,87.50
2017-11-19T10:47:51.174Z,87.50
2017-11-19T10:50:20.655Z,88.10
2017-11-19T10:52:51.173Z,86.60
2017-11-19T10:55:20.602Z,86.50
2017-11-19T10:57:50.036Z,87.30
2017-11-19T11:00:19.607Z,86.90
2017-11-19T11:02:53.842Z,87.00
2017-11-19T11:05:23.901Z,86.50
2017-11-19T11:07:53.965Z,85.50
2017-11-19T11:10:23.466Z,84.70
2017-11-19T11:12:53.925Z,85.50
2017-11-19T11:15:23.356Z,85.40
2017-11-19T11:17:52.780Z,84.70
2017-11-19T11:20:22.229Z,85.70
2017-11-19T11:22:51.735Z,84.00
2017-11-19T11:25:22.008Z,85.60
2017-11-19T11:27:54.041Z,85.00
2017-11-19T11:30:23.558Z,84.30
2017-11-19T11:32:53.007Z,85.70
2017-11-19T11:35:22.442Z,86.00
2017-11-19T11:37:52.672Z,87.10
2017-11-19T11:40:23.845Z,87.00
2017-11-19T11:42:53.644Z,88.00
2017-11-19T11:45:33.708Z,86.40
2017-11-19T11:48:02.917Z,85.60
2017-11-19T11:50:32.373Z,85.60
2017-11-19T11:53:02.065Z,84.50
2017-11-19T11:55:31.653Z,84.20
2017-11-19T11:58:01.108Z,82.80
2017-11-19T12:00:30.765Z,83.00
2017-11-19T12:03:00.959Z,82.80
2017-11-19T12:05:31.458Z,78.80
2017-11-19T12:08:00.771Z,78.80
2017-11-19T12:10:30.466Z,80.50
2017-11-19T12:13:00.291Z,78.40
2017-11-19T12:15:30.554Z,78.30
2017-11-19T12:17:59.811Z,78.50
2017-11-19T12:20:29.271Z,77.70
2017-11-19T12:22:59.475Z,77.60
2017-11-19T12:25:28.588Z,77.60
2017-11-19T12:27:59.354Z,77.30
2017-11-19T12:30:28.119Z,77.30
2017-11-19T12:32:57.016Z,79.10
2017-11-19T12:35:27.233Z,78.00
2017-11-19T12:37:56.850Z,77.90
2017-11-19T12:40:26.319Z,79.60
2017-11-19T12:42:56.629Z,78.80
2017-11-19T12:45:26.059Z,78.80
2017-11-19T12:47:55.499Z,78.10
2017-11-19T12:50:25.271Z,80.10
2017-11-19T12:52:55.266Z,80.10
2017-11-19T12:55:24.799Z,80.10
2017-11-19T12:57:54.259Z,80.10
2017-11-19T13:00:24.536Z,77.60
2017-11-19T13:02:55.020Z,77.50
2017-11-19T13:05:24.521Z,77.30
2017-11-19T13:07:53.939Z,77.00
2017-11-19T13:10:24.210Z,75.30
2017-11-19T13:12:53.733Z,76.40
2017-11-19T13:15:23.166Z,74.20
2017-11-19T13:17:52.865Z,74.60
2017-11-19T13:20:22.324Z,74.70
2017-11-19T13:22:51.861Z,74.90
2017-11-19T13:25:21.690Z,78.10
2017-11-19T13:27:51.131Z,77.30
2017-11-19T13:30:20.385Z,78.30
2017-11-19T13:32:50.570Z,81.20
2017-11-19T13:35:20.027Z,86.90
2017-11-19T13:37:49.717Z,89.70
2017-11-19T13:40:19.708Z,90.10
2017-11-19T13:42:50.169Z,90.50
2017-11-19T13:45:19.932Z,90.60
2017-11-19T13:47:50.031Z,91.20
2017-11-19T13:50:20.362Z,91.70
2017-11-19T13:52:49.849Z,91.70
2017-11-19T13:55:19.317Z,91.60
2017-11-19T13:57:50.114Z,91.90
2017-11-19T14:00:19.541Z,91.90
2017-11-19T14:02:48.784Z,91.80
2017-11-19T14:05:18.593Z,92.00
2017-11-19T14:07:49.849Z,92.20
2017-11-19T14:10:19.706Z,92.50
2017-11-19T14:12:49.118Z,92.60
2017-11-19T14:15:19.492Z,92.70
2017-11-19T14:17:49.265Z,92.30
2017-11-19T14:20:19.472Z,91.50
2017-11-19T14:22:49.282Z,91.50
2017-11-19T14:25:19.472Z,90.40
2017-11-19T14:27:48.961Z,90.30
2017-11-19T14:30:18.615Z,90.20
2017-11-19T14:32:48.486Z,90.20
2017-11-19T14:35:20.763Z,89.80
2017-11-19T14:37:50.243Z,89.70
2017-11-19T14:40:19.721Z,89.40
2017-11-19T14:42:49.192Z,90.20
2017-11-19T14:45:19.381Z,90.30
2017-11-19T14:47:48.808Z,90.30
2017-11-19T14:50:18.286Z,90.50
2017-11-19T14:52:47.753Z,90.20
2017-11-19T14:55:19.325Z,90.50
2017-11-19T14:57:48.735Z,90.30
2017-11-19T15:00:19.196Z,90.80
2017-11-19T15:02:49.418Z,90.80
2017-11-19T15:05:19.073Z,90.80
2017-11-19T15:07:48.813Z,90.90
2017-11-19T15:10:17.903Z,91.10
2017-11-19T15:12:47.686Z,91.20
2017-11-19T15:15:17.177Z,90.90
2017-11-19T15:17:46.626Z,90.70
2017-11-19T15:20:16.822Z,90.20
2017-11-19T15:22:46.415Z,89.70
2017-11-19T15:25:17.277Z,90.10
2017-11-19T15:27:47.809Z,90.00
2017-11-19T15:30:18.019Z,89.80
2017-11-19T15:32:47.474Z,89.70
2017-11-19T15:35:18.549Z,90.00
2017-11-19T15:37:48.474Z,90.40
2017-11-19T15:40:18.624Z,89.90
2017-11-19T15:42:48.080Z,90.00
2017-11-19T15:45:17.572Z,90.10
2017-11-19T15:47:47.386Z,90.30
2017-11-19T15:50:17.019Z,90.50
2017-11-19T15:52:46.444Z,90.70
2017-11-19T15:55:16.247Z,90.70
2017-11-19T15:57:48.268Z,90.30
2017-11-19T16:00:17.727Z,90.20
2017-11-19T16:02:47.267Z,90.00
2017-11-19T16:05:16.734Z,90.30
2017-11-19T16:07:46.222Z,90.50
2017-11-19T16:10:16.717Z,90.80
2017-11-19T16:12:46.553Z,91.20
2017-11-19T16:15:15.986Z,92.50
2017-11-19T16:17:45.464Z,93.20
2017-11-19T16:20:15.238Z,94.20
2017-11-19T16:22:44.737Z,94.80
2017-11-19T16:25:14.161Z,95.50
2017-11-19T16:27:43.617Z,95.70
2017-11-19T16:30:13.085Z,96.10
2017-11-19T16:32:42.515Z,95.80
2017-11-19T16:35:12.540Z,96.00
2017-11-19T16:37:42.152Z,96.10
2017-11-19T16:40:12.724Z,96.40
2017-11-19T16:42:42.315Z,96.30
2017-11-19T16:45:11.746Z,96.50
2017-11-19T16:47:42.373Z,97.30
2017-11-19T16:50:11.920Z,96.90
2017-11-19T16:52:41.502Z,97.00
2017-11-19T16:55:11.477Z,96.90
2017-11-19T16:57:40.923Z,97.00
2017-11-19T17:00:10.366Z,97.00
2017-11-19T17:02:40.745Z,96.60
2017-11-19T17:05:10.368Z,96.50
2017-11-19T17:07:41.662Z,96.20
2017-11-19T17:10:11.228Z,96.20
2017-11-19T17:12:40.642Z,96.10
2017-11-19T17:15:10.646Z,96.10
2017-11-19T17:17:40.829Z,96.20
2017-11-19T17:20:10.661Z,96.20
2017-11-19T17:22:40.093Z,96.10
2017-11-19T17:25:09.521Z,96.00
2017-11-19T17:27:39.215Z,96.20
2017-11-19T17:30:08.685Z,96.00
2017-11-19T17:32:37.945Z,95.90
2017-11-19T17:35:08.007Z,95.80
2017-11-19T17:37:38.204Z,96.20
2017-11-19T17:40:07.664Z,96.20
2017-11-19T17:42:37.749Z,96.20
2017-11-19T17:45:06.824Z,96.30
2017-11-19T17:47:36.253Z,96.30
2017-11-19T17:50:06.737Z,96.70
2017-11-19T17:52:36.174Z,96.30
2017-11-19T17:55:05.644Z,96.30
2017-11-19T17:57:35.334Z,96.30
2017-11-19T18:00:04.757Z,96.30
2017-11-19T18:02:34.194Z,96.20
2017-11-19T18:05:04.090Z,96.20
2017-11-19T18:07:33.519Z,96.00
2017-11-19T18:10:02.985Z,96.00
2017-11-19T18:12:32.815Z,95.90
2017-11-19T18:15:02.240Z,95.60
2017-11-19T18:17:31.705Z,95.20
2017-11-19T18:20:01.744Z,95.30
2017-11-19T18:22:31.778Z,95.10
2017-11-19T18:25:02.196Z,95.00
2017-11-19T18:27:32.400Z,94.80
2017-11-19T18:30:01.892Z,94.80
2017-11-19T18:32:31.324Z,94.70
2017-11-19T18:35:00.781Z,94.70
2017-11-19T18:37:30.232Z,94.80
2017-11-19T18:39:59.849Z,94.80
2017-11-19T18:42:32.439Z,94.90
2017-11-19T18:45:02.459Z,94.90
2017-11-19T18:47:32.292Z,94.90
2017-11-19T18:50:01.758Z,94.80
2017-11-19T18:52:31.190Z,95.00
2017-11-19T18:55:00.911Z,95.10
2017-11-19T18:57:30.331Z,95.20
2017-11-19T18:59:59.772Z,95.20
2017-11-19T19:02:29.561Z,95.20
2017-11-19T19:04:59.100Z,95.40
2017-11-19T19:07:28.554Z,95.50
2017-11-19T19:09:58.418Z,95.40
2017-11-19T19:12:28.199Z,95.40
2017-11-19T19:14:57.689Z,95.50
2017-11-19T19:17:27.482Z,95.50
2017-11-19T19:19:56.922Z,95.60
2017-11-19T19:22:26.353Z,95.70
2017-11-19T19:24:56.246Z,95.80
2017-11-19T19:27:26.438Z,96.50
2017-11-19T19:29:56.355Z,96.10
2017-11-19T19:32:25.841Z,96.20
2017-11-19T19:34:56.050Z,96.60
2017-11-19T19:37:25.501Z,96.60
2017-11-19T19:39:54.939Z,96.80
2017-11-19T19:42:26.116Z,97.20
2017-11-19T19:44:57.500Z,97.80
2017-11-19T19:47:28.293Z,97.80
2017-11-19T19:49:58.070Z,97.70
2017-11-19T19:52:27.855Z,97.50
2017-11-19T19:54:57.797Z,97.40
2017-11-19T19:57:27.245Z,97.40
2017-11-19T19:59:56.774Z,97.40
2017-11-19T20:02:26.321Z,97.20
2017-11-19T20:04:55.753Z,97.20
2017-11-19T20:07:25.177Z,97.10
2017-11-19T20:09:54.760Z,97.20
2017-11-19T20:12:25.234Z,97.50
2017-11-19T20:14:55.107Z,97.40
2017-11-19T20:17:24.532Z,97.40
2017-11-19T20:19:53.962Z,97.40
2017-11-19T20:22:23.722Z,97.50
2017-11-19T20:24:53.935Z,97.50
2017-11-19T20:27:23.379Z,97.50
2017-11-19T20:29:52.874Z,97.60
2017-11-19T20:32:23.720Z,97.60
2017-11-19T20:34:53.627Z,97.70
2017-11-19T20:37:23.172Z,97.80
2017-11-19T20:39:53.722Z,98.10
2017-11-19T20:42:24.013Z,98.50
2017-11-19T20:44:54.251Z,98.10
2017-11-19T20:47:23.819Z,98.00
2017-11-19T20:49:53.286Z,97.90
2017-11-19T20:52:23.514Z,97.80
2017-11-19T20:54:55.630Z,97.80
2017-11-19T20:57:26.874Z,97.70
2017-11-19T20:59:57.525Z,97.70
2017-11-19T21:02:27.013Z,97.80
2017-11-19T21:04:56.544Z,97.70
2017-11-19T21:07:26.350Z,97.80
2017-11-19T21:09:55.790Z,98.10
2017-11-19T21:12:33.725Z,98.30
2017-11-19T21:15:05.942Z,98.50
2017-11-19T21:17:35.180Z,98.40
2017-11-19T21:20:03.950Z,98.30
2017-11-19T21:22:33.573Z,98.30
2017-11-19T21:25:04.107Z,98.40
2017-11-19T21:27:33.614Z,98.40
2017-11-19T21:30:03.060Z,98.50
2017-11-19T21:32:33.354Z,99.10
2017-11-19T21:35:02.775Z,99.00
2017-11-19T21:37:34.012Z,99.30
2017-11-19T21:40:04.251Z,99.30
2017-11-19T21:42:34.163Z,99.40
2017-11-19T21:45:03.388Z,99.20
2017-11-19T21:47:32.844Z,98.80
2017-11-19T21:50:02.629Z,98.40
2017-11-19T21:52:32.049Z,98.10
2017-11-19T21:55:02.708Z,97.90
2017-11-19T21:57:32.373Z,97.80
2017-11-19T22:00:01.897Z,97.70
2017-11-19T22:02:31.426Z,97.70
2017-11-19T22:05:02.676Z,97.50
2017-11-19T22:07:32.534Z,97.70
2017-11-19T22:10:01.954Z,98.10
2017-11-19T22:12:33.138Z,98.10
2017-11-19T22:15:03.560Z,98.30
2017-11-19T22:17:33.319Z,98.30
2017-11-19T22:20:02.779Z,98.20
2017-11-19T22:22:32.555Z,98.40
2017-11-19T22:25:03.056Z,98.80
2017-11-19T22:27:32.712Z,98.40
2017-11-19T22:30:02.231Z,98.60
2017-11-19T22:32:31.692Z,98.60
2017-11-19T22:35:01.898Z,98.40
2017-11-19T22:37:31.644Z,98.40
2017-11-19T22:40:01.109Z,98.50
2017-11-19T22:42:31.123Z,98.60
2017-11-19T22:45:02.283Z,98.50
2017-11-19T22:47:32.644Z,98.80
2017-11-19T22:50:02.153Z,98.80
2017-11-19T22:52:31.588Z,98.90
2017-11-19T22:55:01.716Z,99.20
2017-11-19T22:57:32.210Z,99.00
2017-11-19T23:00:02.363Z,99.10
2017-11-19T23:02:31.581Z,99.10
2017-11-19T23:05:01.019Z,99.10
2017-11-19T23:07:30.600Z,99.20
2017-11-19T23:10:00.798Z,99.30
2017-11-19T23:12:31.921Z,99.30
2017-11-19T23:15:02.154Z,99.40
2017-11-19T23:17:34.511Z,99.50
2017-11-19T23:20:04.396Z,99.50
2017-11-19T23:22:34.309Z,99.60
2017-11-19T23:25:03.797Z,99.50
2017-11-19T23:27:33.258Z,99.50
2017-11-19T23:30:04.417Z,99.50
2017-11-19T23:32:33.768Z,99.60
2017-11-19T23:35:03.103Z,99.60
2017-11-19T23:37:32.922Z,99.50
2017-11-19T23:40:02.356Z,99.40
2017-11-19T23:42:31.775Z,99.40
2017-11-19T23:45:03.021Z,99.40
2017-11-19T23:47:33.680Z,99.20
2017-11-19T23:50:03.134Z,99.20
2017-11-19T23:52:34.546Z,99.10
2017-11-19T23:55:04.572Z,99.10
2017-11-19T23:57:34.762Z,98.90
